Titusville, FL

3:05 AM EDT on September 21, 2014 (GMT -0400)
Royal Oak | Change Station
CLOSE
Current Station
Personal Weather Station
Location: Titusville, FL
Elevation: 59 ft
Nearby Weather Stations

Elev 59 ft 28.58 °N, 80.83 °W | Updated 7 minutes ago

Clear
Clear
70.9 °F
Feels Like 70.9 °F
N
0.0
Wind Variable Wind from SE

Today
High -- | Low -- °F
--% Chance of Precip.
Yesterday
High -- | Low -- °F
Precip. -- in
7:11 AM 7:20 PM
Waning Crescent, 8% visible
Pressure 29.94 in
Visibility 10.0 miles
Clouds Clear
Dew Point 71 °F
Humidity 99%
Rainfall 0.00 in
Snow Depth Not available.
UV 0 out of 12
Pollen 5.30 out of 12
Air Quality Not available.
Flu Activity Not available.
METAR KTTS 210658Z AUTO 30005KT 10SM CLR 22/22 A2993 RMK AO2 SLP138 T02240216 $

More Conditions Fewer Conditions

Pressure 29.94 in
Visibility 10.0 miles
Clouds Clear
Dew Point 71 °F
Humidity 99%
Rainfall 0.00 in
Snow Depth Not available.
UV 0 out of 12
Pollen 5.30 out of 12
Air Quality Not available.
Flu Activity Not available.
METAR KTTS 210658Z AUTO 30005KT 10SM CLR 22/22 A2993 RMK AO2 SLP138 T02240216 $

More Conditions Fewer Conditions

Nowcast | as of 12:08 am EDT on September 21, 2014

Low pressure located well east of the Georgia coast will continue to lift northeast the rest of the night. Showers moving around the low may brush the Volusia and North Brevard coasts the first part of the night then the chance of any showers impacting the coast from Flagler Beach to Cape Canaveral decreases as the low moves away from the Georgia coast. High pressure located over the Alabama Georgia state line moves toward North Florida. The infrared satellite loop is showing that the dense high overcast skies will start to thin out north to south late in the night. On the coastal waters from Flagler Beach to Sebastian Inlet the northwest winds of 15 to 20 mph diminish to 10 to 15 mph toward sunrise Sunday. Additional details...including graphics are available online at: http://www.Srh.NOAA.Gov/mlb/blog.Php

×

10-Day Weather Forecast

Almanac

Astronomy

Sep. 21, 2014 Rise Set
Actual Time 7:11 AM EDT 7:20 PM EDT
Civil Twilight 6:47 AM EDT 7:44 PM EDT
Nautical Twilight 6:20 AM EDT 8:11 PM EDT
Astronomical Twilight 5:52 AM EDT 8:39 PM EDT
Moon 4:53 AM EDT 5:49 PM EDT
Length of Visible Light 12h 56m
Length of Day
12h 09m
Tomorrow will be 1m 41s shorter.
Waning Crescent, 8% of the Moon is Illuminated
Today
Waning Crescent
Sep 24
New
Oct 1
First Quarter
Oct 8
Full
Oct 15
Last Quarter

Today's Extremes

State Highs State Lows

Community

WunderPhotos

Upload Photos

1,755,101 photos uploaded!

Nearby

Snow Depth

Station Depth Elevation
No new snow has been reported.

Earthquake Activity

City Distance Mag. Time & Date
No recent earthquake activity has been reported nearby.
Minimum magnitude displayed is 2.5.

Coastal Water Temperatures

Place Temperature
Trident Pier, FL 84.0 °F
Fort Myers, FL 82.9 °F
Lake Worth, FL 84.9 °F

Nearby Weather Stations